Time;durP1;ratioP1;P1;durP2;ratioP2;P2;SDS_P1;SDS_P2;PMS_P1;PMS_P2;Temp;Humidity;BMP_temperature;BMP_pressure;BME280_temperature;BME280_humidity;BME280_pressure;Samples;Min_cycle;Max_cycle;Signal;HPM_P1;HPM_P2
2023/12/01 00:00:39;;;;;;;;;;;2.20;99.90;;;;;;5075076;28;19904;-77
2023/12/01 00:03:05;;;;;;;;;;;2.20;99.90;;;;;;5073670;28;19908;-77
2023/12/01 00:05:30;;;;;;;;;;;2.20;99.90;;;;;;5074427;28;19923;-77
2023/12/01 00:07:56;;;;;;;;;;;2.30;99.90;;;;;;5075244;28;20001;-77
2023/12/01 00:10:21;;;;;;;;;;;2.30;99.90;;;;;;5073879;28;20015;-76
2023/12/01 00:12:47;;;;;;;;;;;2.40;99.90;;;;;;5074062;28;19915;-76
2023/12/01 00:15:12;;;;;;;;;;;2.40;99.90;;;;;;5073169;28;19916;-76
2023/12/01 00:17:38;;;;;;;;;;;2.60;99.90;;;;;;5073386;28;19908;-77
2023/12/01 00:20:04;;;;;;;;;;;2.40;99.90;;;;;;5073584;28;19936;-77
2023/12/01 00:22:29;;;;;;;;;;;2.40;99.90;;;;;;5073705;28;19911;-76
2023/12/01 00:24:55;;;;;;;;;;;2.40;99.90;;;;;;5074771;28;19905;-77
2023/12/01 00:27:20;;;;;;;;;;;2.40;99.90;;;;;;5073249;28;19958;-77
2023/12/01 00:29:46;;;;;;;;;;;2.30;99.90;;;;;;5073853;28;19912;-77
2023/12/01 00:32:11;;;;;;;;;;;2.20;99.90;;;;;;5073555;28;19905;-77
2023/12/01 00:34:37;;;;;;;;;;;2.30;99.90;;;;;;5074899;28;20356;-77
2023/12/01 00:37:03;;;;;;;;;;;2.40;99.90;;;;;;5076245;28;19932;-77
2023/12/01 00:39:28;;;;;;;;;;;2.20;99.90;;;;;;5076944;28;19999;-76
2023/12/01 00:41:54;;;;;;;;;;;2.30;99.90;;;;;;5071240;28;19995;-76
2023/12/01 00:44:19;;;;;;;;;;;2.20;99.90;;;;;;5071724;28;20434;-77
2023/12/01 00:46:45;;;;;;;;;;;2.20;99.90;;;;;;5072106;28;19926;-77
2023/12/01 00:49:11;;;;;;;;;;;2.20;99.90;;;;;;5072064;28;20328;-77
2023/12/01 00:51:41;;;;;;;;;;;2.20;99.90;;;;;;5073700;28;20038;-77
2023/12/01 00:54:07;;;;;;;;;;;2.20;99.90;;;;;;5072391;28;19954;-77
2023/12/01 00:56:32;;;;;;;;;;;2.10;99.90;;;;;;5072475;28;20009;-76
2023/12/01 00:58:58;;;;;;;;;;;2.00;99.90;;;;;;5071952;28;19917;-77
2023/12/01 01:01:23;;;;;;;;;;;2.10;99.90;;;;;;5072762;28;19908;-76
2023/12/01 01:03:49;;;;;;;;;;;2.10;99.90;;;;;;5072813;28;19909;-77
2023/12/01 01:06:14;;;;;;;;;;;2.10;99.90;;;;;;5073913;28;20340;-77
2023/12/01 01:08:40;;;;;;;;;;;2.10;99.90;;;;;;5072706;28;19938;-77
2023/12/01 01:11:05;;;;;;;;;;;2.10;99.90;;;;;;5073264;28;19916;-77
2023/12/01 01:13:32;;;;;;;;;;;2.10;99.90;;;;;;5073222;28;19934;-76
2023/12/01 01:15:57;;;;;;;;;;;2.10;99.90;;;;;;5071805;28;19912;-77
2023/12/01 01:18:23;;;;;;;;;;;2.10;99.90;;;;;;5071898;28;20289;-77
2023/12/01 01:20:49;;;;;;;;;;;2.00;99.90;;;;;;5073147;28;20383;-77
2023/12/01 01:23:14;;;;;;;;;;;2.10;99.90;;;;;;5071646;28;20335;-77
2023/12/01 01:25:40;;;;;;;;;;;2.10;99.90;;;;;;5072299;28;19915;-77
2023/12/01 01:28:05;;;;;;;;;;;2.00;99.90;;;;;;5074181;28;19909;-76
2023/12/01 01:30:31;;;;;;;;;;;2.00;99.90;;;;;;5072586;28;19912;-77
2023/12/01 01:32:56;;;;;;;;;;;2.00;99.90;;;;;;5071973;28;19905;-77
2023/12/01 01:35:22;;;;;;;;;;;2.10;99.90;;;;;;5073512;28;19912;-77
2023/12/01 01:37:47;;;;;;;;;;;2.00;99.90;;;;;;5072352;28;19912;-78
2023/12/01 01:40:13;;;;;;;;;;;2.00;99.90;;;;;;5072618;28;20361;-77
2023/12/01 01:42:39;;;;;;;;;;;1.90;99.90;;;;;;5073668;28;20347;-77
2023/12/01 01:45:05;;;;;;;;;;;1.90;99.90;;;;;;5073798;28;19908;-77
2023/12/01 01:47:31;;;;;;;;;;;2.00;99.90;;;;;;5072268;28;19908;-77
2023/12/01 01:49:57;;;;;;;;;;;2.00;99.90;;;;;;5071978;28;20309;-77
2023/12/01 01:52:22;;;;;;;;;;;2.00;99.90;;;;;;5070872;28;19904;-77
2023/12/01 01:54:48;;;;;;;;;;;2.00;99.90;;;;;;5071497;28;20364;-77
2023/12/01 01:57:14;;;;;;;;;;;2.10;99.90;;;;;;5072684;28;19991;-77
2023/12/01 01:59:39;;;;;;;;;;;2.10;99.90;;;;;;5071510;28;20292;-77
2023/12/01 02:02:05;;;;;;;;;;;2.10;99.90;;;;;;5072893;28;19904;-77
2023/12/01 02:04:31;;;;;;;;;;;2.00;99.90;;;;;;5072915;28;20327;-78
2023/12/01 02:06:56;;;;;;;;;;;2.00;99.90;;;;;;5072818;28;19955;-76
2023/12/01 02:09:22;;;;;;;;;;;2.00;99.90;;;;;;5071067;28;19908;-76
2023/12/01 02:11:48;;;;;;;;;;;2.10;99.90;;;;;;5071436;28;19915;-77
2023/12/01 02:14:13;;;;;;;;;;;2.10;99.90;;;;;;5070887;28;19912;-77
2023/12/01 02:16:48;;;;;;;;;;;2.20;99.90;;;;;;5072680;28;19999;-76
2023/12/01 02:19:13;;;;;;;;;;;2.10;99.90;;;;;;5070736;28;19908;-77
2023/12/01 02:21:46;;;;;;;;;;;2.10;99.90;;;;;;5071434;28;20437;-77
2023/12/01 02:24:11;;;;;;;;;;;2.00;99.90;;;;;;5072767;28;19950;-76
2023/12/01 02:26:37;;;;;;;;;;;1.90;99.90;;;;;;5071592;28;19944;-77
2023/12/01 02:29:06;;;;;;;;;;;1.90;99.90;;;;;;5072363;28;19908;-77
2023/12/01 02:31:32;;;;;;;;;;;1.90;99.90;;;;;;5066669;28;19912;-77
2023/12/01 02:33:57;;;;;;;;;;;2.00;99.90;;;;;;5071048;28;19978;-76
2023/12/01 02:36:23;;;;;;;;;;;1.90;99.90;;;;;;5071514;28;19908;-77
2023/12/01 02:38:48;;;;;;;;;;;1.80;99.90;;;;;;5072468;28;19912;-77
2023/12/01 02:41:15;;;;;;;;;;;1.80;99.90;;;;;;5072686;28;19905;-76
2023/12/01 02:43:41;;;;;;;;;;;1.80;99.90;;;;;;5072272;28;20003;-77
2023/12/01 02:46:06;;;;;;;;;;;1.80;99.90;;;;;;5071641;28;20355;-76
2023/12/01 02:48:32;;;;;;;;;;;1.80;99.90;;;;;;5072727;28;20423;-77
2023/12/01 02:50:57;;;;;;;;;;;1.80;99.90;;;;;;5072462;28;19963;-77
2023/12/01 02:53:23;;;;;;;;;;;1.90;99.90;;;;;;5072789;28;19916;-77
2023/12/01 02:55:49;;;;;;;;;;;2.00;99.90;;;;;;5071365;28;19904;-77
2023/12/01 02:58:14;;;;;;;;;;;2.00;99.90;;;;;;5070347;28;20277;-77
2023/12/01 03:00:42;;;;;;;;;;;1.90;99.90;;;;;;5071088;28;19908;-77
2023/12/01 03:03:07;;;;;;;;;;;2.10;99.90;;;;;;5070649;28;19966;-77
2023/12/01 03:05:33;;;;;;;;;;;1.90;99.90;;;;;;5069792;28;19940;-77
2023/12/01 03:07:58;;;;;;;;;;;2.00;99.90;;;;;;5071186;28;20381;-77
2023/12/01 03:10:24;;;;;;;;;;;2.00;99.90;;;;;;5071214;28;19958;-76
2023/12/01 03:12:49;;;;;;;;;;;1.90;99.90;;;;;;5071377;28;19911;-77
2023/12/01 03:15:19;;;;;;;;;;;2.00;99.90;;;;;;5071026;28;19912;-77
2023/12/01 03:17:46;;;;;;;;;;;2.10;99.90;;;;;;5071312;28;19905;-77
2023/12/01 03:20:11;;;;;;;;;;;2.10;99.90;;;;;;5069703;28;20003;-78
2023/12/01 03:22:38;;;;;;;;;;;2.10;99.90;;;;;;5071608;28;19966;-77
2023/12/01 03:25:09;;;;;;;;;;;2.10;99.90;;;;;;5071121;28;19911;-76
2023/12/01 03:27:41;;;;;;;;;;;2.10;99.90;;;;;;5071954;28;19909;-76
2023/12/01 03:30:13;;;;;;;;;;;2.00;99.90;;;;;;5071436;28;19916;-77
2023/12/01 03:32:44;;;;;;;;;;;2.00;99.90;;;;;;5066288;28;20078;-77
2023/12/01 03:35:11;;;;;;;;;;;1.90;99.90;;;;;;5069562;28;19916;-77
2023/12/01 03:37:36;;;;;;;;;;;1.90;99.90;;;;;;5069655;28;19908;-78
2023/12/01 03:40:03;;;;;;;;;;;1.90;99.90;;;;;;5070658;28;20296;-78
2023/12/01 03:42:28;;;;;;;;;;;1.90;99.90;;;;;;5071911;28;20124;-77
2023/12/01 03:44:54;;;;;;;;;;;1.90;99.90;;;;;;5072262;28;19911;-78
2023/12/01 03:47:19;;;;;;;;;;;1.90;99.90;;;;;;5072139;28;19908;-77
2023/12/01 03:49:45;;;;;;;;;;;2.00;99.90;;;;;;5070329;28;19912;-77
2023/12/01 03:52:11;;;;;;;;;;;2.10;99.90;;;;;;5070581;28;20010;-77
2023/12/01 03:54:37;;;;;;;;;;;2.00;99.90;;;;;;5070573;28;19905;-77
2023/12/01 03:57:02;;;;;;;;;;;2.10;99.90;;;;;;5071842;28;19954;-78
2023/12/01 03:59:28;;;;;;;;;;;2.10;99.90;;;;;;5070111;28;19908;-77
2023/12/01 04:01:53;;;;;;;;;;;2.00;99.90;;;;;;5069595;28;19908;-76
2023/12/01 04:04:19;;;;;;;;;;;2.00;99.90;;;;;;5071123;28;19920;-77
2023/12/01 04:06:44;;;;;;;;;;;2.00;99.90;;;;;;5071347;28;19909;-77
2023/12/01 04:09:10;;;;;;;;;;;1.90;99.90;;;;;;5069897;28;19908;-78
2023/12/01 04:11:37;;;;;;;;;;;1.90;99.90;;;;;;5072524;28;19916;-78
2023/12/01 04:14:03;;;;;;;;;;;1.90;99.90;;;;;;5072569;28;19908;-77
2023/12/01 04:16:32;;;;;;;;;;;1.90;99.90;;;;;;5074415;28;20012;-78
2023/12/01 04:18:57;;;;;;;;;;;1.90;99.90;;;;;;5075033;28;19905;-78
2023/12/01 04:21:23;;;;;;;;;;;1.90;99.90;;;;;;5075124;28;20860;-77
2023/12/01 04:23:48;;;;;;;;;;;1.90;99.90;;;;;;5074825;28;19909;-78
2023/12/01 04:26:14;;;;;;;;;;;2.00;99.90;;;;;;5074234;28;19954;-78
2023/12/01 04:28:39;;;;;;;;;;;2.00;99.90;;;;;;5074784;28;19947;-78
2023/12/01 04:31:05;;;;;;;;;;;1.90;99.90;;;;;;5073912;28;19913;-78
2023/12/01 04:33:31;;;;;;;;;;;2.00;99.90;;;;;;5073714;28;19904;-77
2023/12/01 04:35:57;;;;;;;;;;;1.90;99.90;;;;;;5075320;28;19916;-77
2023/12/01 04:38:22;;;;;;;;;;;2.00;99.90;;;;;;5074765;28;19911;-78
2023/12/01 04:40:48;;;;;;;;;;;2.00;99.90;;;;;;5075403;28;19912;-78
2023/12/01 04:43:13;;;;;;;;;;;2.00;99.90;;;;;;5073856;28;19916;-78
2023/12/01 04:45:39;;;;;;;;;;;2.00;99.90;;;;;;5073541;28;19912;-78
2023/12/01 04:48:07;;;;;;;;;;;2.10;99.90;;;;;;5074300;28;19904;-78
2023/12/01 04:50:33;;;;;;;;;;;2.20;99.90;;;;;;5075242;28;19912;-77
2023/12/01 04:53:00;;;;;;;;;;;2.20;99.90;;;;;;5074922;28;19908;-78
2023/12/01 04:55:27;;;;;;;;;;;2.20;99.90;;;;;;5073738;28;19935;-78
2023/12/01 04:57:54;;;;;;;;;;;2.20;99.90;;;;;;5074884;28;20013;-77
2023/12/01 05:00:21;;;;;;;;;;;2.10;99.90;;;;;;5077174;28;19912;-78
2023/12/01 05:02:47;;;;;;;;;;;2.10;99.90;;;;;;5079346;28;19915;-78
2023/12/01 05:05:14;;;;;;;;;;;2.00;99.90;;;;;;5081125;28;20057;-78
2023/12/01 05:07:39;;;;;;;;;;;2.00;99.90;;;;;;5074674;28;19912;-77
2023/12/01 05:10:08;;;;;;;;;;;1.80;99.90;;;;;;5072812;28;19917;-78
2023/12/01 05:12:34;;;;;;;;;;;2.00;99.90;;;;;;5073129;28;19912;-79
2023/12/01 05:14:59;;;;;;;;;;;2.10;99.90;;;;;;5072345;28;20436;-78
2023/12/01 05:17:25;;;;;;;;;;;2.00;99.90;;;;;;5074398;28;19915;-78
2023/12/01 05:19:50;;;;;;;;;;;2.00;99.90;;;;;;5072607;28;19909;-77
2023/12/01 05:22:16;;;;;;;;;;;2.00;99.90;;;;;;5072108;28;20280;-77
2023/12/01 05:24:41;;;;;;;;;;;2.00;99.90;;;;;;5072845;28;20314;-77
2023/12/01 05:27:08;;;;;;;;;;;2.00;99.90;;;;;;5071316;28;19916;-78
2023/12/01 05:29:35;;;;;;;;;;;2.00;99.90;;;;;;5072890;28;19908;-77
2023/12/01 05:32:01;;;;;;;;;;;1.90;99.90;;;;;;5071601;28;19962;-78
2023/12/01 05:34:27;;;;;;;;;;;2.00;99.90;;;;;;5073251;28;20455;-77
2023/12/01 05:36:52;;;;;;;;;;;2.00;99.90;;;;;;5072985;28;19983;-77
2023/12/01 05:39:18;;;;;;;;;;;2.00;99.90;;;;;;5073292;28;20022;-76
2023/12/01 05:41:43;;;;;;;;;;;1.90;99.90;;;;;;5072881;28;19914;-77
2023/12/01 05:44:09;;;;;;;;;;;2.00;99.90;;;;;;5072924;28;19920;-78
2023/12/01 05:46:34;;;;;;;;;;;2.00;99.90;;;;;;5072776;28;19915;-77
2023/12/01 05:49:02;;;;;;;;;;;2.00;99.90;;;;;;5072944;28;20018;-78
2023/12/01 05:51:29;;;;;;;;;;;2.00;99.90;;;;;;5071341;28;19963;-78
2023/12/01 05:53:55;;;;;;;;;;;1.90;99.90;;;;;;5072021;28;19904;-77
2023/12/01 05:56:21;;;;;;;;;;;1.90;99.90;;;;;;5071811;28;19954;-77
2023/12/01 05:58:46;;;;;;;;;;;1.90;99.90;;;;;;5070670;28;20395;-78
2023/12/01 06:01:12;;;;;;;;;;;1.90;99.90;;;;;;5071592;28;19950;-79
2023/12/01 06:03:37;;;;;;;;;;;1.90;99.90;;;;;;5073029;28;20338;-78
2023/12/01 06:06:03;;;;;;;;;;;1.90;99.90;;;;;;5072350;28;19911;-78
2023/12/01 06:08:29;;;;;;;;;;;1.90;99.90;;;;;;5071769;28;19908;-78
2023/12/01 06:10:55;;;;;;;;;;;1.90;99.90;;;;;;5072319;28;19918;-77
2023/12/01 06:13:20;;;;;;;;;;;1.90;99.90;;;;;;5078201;28;19908;-79
2023/12/01 06:15:46;;;;;;;;;;;1.90;99.90;;;;;;5076050;28;19905;-77
2023/12/01 06:18:11;;;;;;;;;;;1.90;99.90;;;;;;5073783;28;19912;-78
2023/12/01 06:20:37;;;;;;;;;;;1.90;99.90;;;;;;5073853;28;19950;-77
2023/12/01 06:23:05;;;;;;;;;;;1.80;99.90;;;;;;5075527;28;19913;-78
2023/12/01 06:25:32;;;;;;;;;;;2.00;99.90;;;;;;5074914;28;19904;-78
2023/12/01 06:28:02;;;;;;;;;;;1.90;99.90;;;;;;5071546;28;19911;-78
2023/12/01 06:30:33;;;;;;;;;;;1.90;99.90;;;;;;5072273;28;19912;-78
2023/12/01 06:32:59;;;;;;;;;;;1.80;99.90;;;;;;5071633;28;19938;-79
2023/12/01 06:35:24;;;;;;;;;;;1.90;99.90;;;;;;5072012;28;20713;-79
2023/12/01 06:37:50;;;;;;;;;;;2.00;99.90;;;;;;5070950;28;20002;-77
2023/12/01 06:40:16;;;;;;;;;;;2.00;99.90;;;;;;5071394;28;19912;-77
2023/12/01 06:42:42;;;;;;;;;;;2.00;99.90;;;;;;5072593;28;19916;-77
2023/12/01 06:45:12;;;;;;;;;;;2.00;99.90;;;;;;5071455;28;20007;-78
2023/12/01 06:47:38;;;;;;;;;;;2.00;99.90;;;;;;5071305;28;19982;-78
2023/12/01 06:50:05;;;;;;;;;;;1.80;99.90;;;;;;5071014;28;19916;-77
2023/12/01 06:52:30;;;;;;;;;;;1.80;99.90;;;;;;5071354;28;19908;-78
2023/12/01 06:54:56;;;;;;;;;;;1.80;99.90;;;;;;5072648;28;20373;-78
2023/12/01 06:57:21;;;;;;;;;;;1.80;99.90;;;;;;5071806;28;19908;-78
2023/12/01 06:59:47;;;;;;;;;;;1.80;99.90;;;;;;5071411;28;20292;-77
2023/12/01 07:02:17;;;;;;;;;;;1.80;99.90;;;;;;5071121;28;19908;-78
2023/12/01 07:04:43;;;;;;;;;;;1.80;99.90;;;;;;5071735;28;19908;-78
2023/12/01 07:07:09;;;;;;;;;;;1.90;99.90;;;;;;5071216;28;19905;-78
2023/12/01 07:09:34;;;;;;;;;;;1.90;99.90;;;;;;5072556;28;19905;-78
2023/12/01 07:12:03;;;;;;;;;;;1.90;99.90;;;;;;5071643;28;19908;-77
2023/12/01 07:14:29;;;;;;;;;;;2.00;99.90;;;;;;5074568;28;19915;-78
2023/12/01 07:16:55;;;;;;;;;;;2.00;99.90;;;;;;5074882;28;19904;-78
2023/12/01 07:19:20;;;;;;;;;;;2.00;99.90;;;;;;5071395;28;19999;-78
2023/12/01 07:21:46;;;;;;;;;;;2.00;99.90;;;;;;5069991;28;19908;-77
2023/12/01 07:24:12;;;;;;;;;;;2.00;99.90;;;;;;5069763;28;19908;-78
2023/12/01 07:26:37;;;;;;;;;;;2.10;99.90;;;;;;5071351;28;20007;-78
2023/12/01 07:29:04;;;;;;;;;;;2.00;99.90;;;;;;5071107;28;19940;-77
2023/12/01 07:31:33;;;;;;;;;;;2.20;99.90;;;;;;5070935;28;20007;-78
2023/12/01 07:34:00;;;;;;;;;;;2.10;99.90;;;;;;5069701;28;19911;-77
2023/12/01 07:36:26;;;;;;;;;;;2.00;99.90;;;;;;5069759;28;19954;-78
2023/12/01 07:38:51;;;;;;;;;;;2.10;99.90;;;;;;5069410;28;19913;-74
2023/12/01 07:41:17;;;;;;;;;;;2.00;99.90;;;;;;5069120;28;19905;-75
2023/12/01 07:43:42;;;;;;;;;;;1.90;99.90;;;;;;5068991;28;19924;-78
2023/12/01 07:46:08;;;;;;;;;;;2.00;99.90;;;;;;5071187;28;19979;-75
2023/12/01 07:48:34;;;;;;;;;;;2.00;99.90;;;;;;5070574;28;19914;-78
2023/12/01 07:51:00;;;;;;;;;;;2.10;99.90;;;;;;5072220;28;20002;-75
2023/12/01 07:53:26;;;;;;;;;;;2.10;99.90;;;;;;5074433;28;19995;-75
2023/12/01 07:55:51;;;;;;;;;;;2.10;99.90;;;;;;5073135;28;19949;-77
2023/12/01 07:58:17;;;;;;;;;;;2.00;99.90;;;;;;5073154;28;19926;-76
2023/12/01 08:00:42;;;;;;;;;;;2.00;99.90;;;;;;5072848;28;19905;-75
2023/12/01 08:03:08;;;;;;;;;;;2.10;99.90;;;;;;5072146;28;19955;-76
2023/12/01 08:05:34;;;;;;;;;;;2.10;99.90;;;;;;5072801;28;19911;-76
2023/12/01 08:08:00;;;;;;;;;;;2.10;99.90;;;;;;5073156;28;19909;-76
2023/12/01 08:10:27;;;;;;;;;;;2.20;99.90;;;;;;5074518;28;19924;-76
2023/12/01 08:12:56;;;;;;;;;;;2.20;99.90;;;;;;5073126;28;20427;-75
2023/12/01 08:15:21;;;;;;;;;;;2.20;99.90;;;;;;5073518;28;19957;-76
2023/12/01 08:17:47;;;;;;;;;;;2.30;99.90;;;;;;5074540;28;19908;-76
2023/12/01 08:20:13;;;;;;;;;;;2.30;99.90;;;;;;5072720;28;19908;-76
2023/12/01 08:22:39;;;;;;;;;;;2.20;99.90;;;;;;5074319;28;19909;-76
2023/12/01 08:25:05;;;;;;;;;;;2.30;99.90;;;;;;5072256;28;19915;-78
2023/12/01 08:27:31;;;;;;;;;;;2.30;99.90;;;;;;5073137;28;19904;-77
2023/12/01 08:29:56;;;;;;;;;;;2.40;99.90;;;;;;5073104;28;20399;-76
2023/12/01 08:32:22;;;;;;;;;;;2.40;99.90;;;;;;5073056;28;19904;-76
2023/12/01 08:34:47;;;;;;;;;;;2.50;99.90;;;;;;5074291;28;19985;-76
2023/12/01 08:37:13;;;;;;;;;;;2.50;99.90;;;;;;5072779;28;19904;-76
2023/12/01 08:39:38;;;;;;;;;;;2.70;99.90;;;;;;5073578;28;19908;-75
2023/12/01 08:42:04;;;;;;;;;;;2.70;99.90;;;;;;5073757;28;19904;-76
2023/12/01 08:44:30;;;;;;;;;;;2.50;99.90;;;;;;5072573;28;19916;-76
2023/12/01 08:46:56;;;;;;;;;;;2.50;99.90;;;;;;5073069;28;20154;-76
2023/12/01 08:49:21;;;;;;;;;;;2.60;99.90;;;;;;5073826;28;20372;-76
2023/12/01 08:51:47;;;;;;;;;;;2.70;99.90;;;;;;5074747;28;19995;-77
2023/12/01 08:54:13;;;;;;;;;;;2.70;99.90;;;;;;5072877;28;19959;-77
2023/12/01 08:56:38;;;;;;;;;;;2.60;99.90;;;;;;5073023;28;19909;-77
2023/12/01 08:59:04;;;;;;;;;;;2.60;99.90;;;;;;5072020;28;19947;-77
2023/12/01 09:01:29;;;;;;;;;;;2.60;99.90;;;;;;5074894;28;20442;-77
2023/12/01 09:03:55;;;;;;;;;;;2.60;99.90;;;;;;5073576;28;19912;-77
2023/12/01 09:06:21;;;;;;;;;;;2.60;99.90;;;;;;5073683;28;19908;-77
2023/12/01 09:08:47;;;;;;;;;;;2.70;99.90;;;;;;5073099;28;19916;-77
2023/12/01 09:11:13;;;;;;;;;;;2.60;99.90;;;;;;5072639;28;20373;-78
2023/12/01 09:13:39;;;;;;;;;;;2.60;99.90;;;;;;5071697;28;19915;-77
2023/12/01 09:16:05;;;;;;;;;;;2.60;99.90;;;;;;5072736;28;19904;-76
2023/12/01 09:18:30;;;;;;;;;;;2.50;99.90;;;;;;5074189;28;19905;-76
2023/12/01 09:20:56;;;;;;;;;;;2.40;99.90;;;;;;5073150;28;19994;-77
2023/12/01 09:23:21;;;;;;;;;;;2.50;99.90;;;;;;5073280;28;20392;-77
2023/12/01 09:25:47;;;;;;;;;;;2.50;99.90;;;;;;5074695;28;20448;-78
2023/12/01 09:28:13;;;;;;;;;;;2.50;99.90;;;;;;5076398;28;19912;-77
2023/12/01 09:30:38;;;;;;;;;;;2.50;99.90;;;;;;5071481;28;19958;-75
2023/12/01 09:33:04;;;;;;;;;;;2.60;99.90;;;;;;5072656;28;19958;-77
2023/12/01 09:35:30;;;;;;;;;;;2.60;99.90;;;;;;5071063;28;19916;-77
2023/12/01 09:37:56;;;;;;;;;;;2.60;99.90;;;;;;5070952;28;19904;-76
2023/12/01 09:40:22;;;;;;;;;;;2.50;99.90;;;;;;5073367;28;19914;-76
2023/12/01 09:42:48;;;;;;;;;;;2.50;99.90;;;;;;5070869;28;19912;-76
2023/12/01 09:45:18;;;;;;;;;;;2.50;99.90;;;;;;5071245;28;20261;-76
2023/12/01 09:47:48;;;;;;;;;;;2.50;99.90;;;;;;5073061;28;19904;-76
2023/12/01 09:50:14;;;;;;;;;;;2.50;99.90;;;;;;5072434;28;19995;-77
2023/12/01 09:52:40;;;;;;;;;;;2.50;99.90;;;;;;5073259;28;20456;-77
2023/12/01 09:55:06;;;;;;;;;;;2.50;99.90;;;;;;5071281;28;20006;-77
2023/12/01 09:57:32;;;;;;;;;;;2.60;99.90;;;;;;5071130;28;20015;-77
2023/12/01 09:59:57;;;;;;;;;;;2.60;99.90;;;;;;5073009;28;19991;-77
2023/12/01 10:02:23;;;;;;;;;;;2.70;99.90;;;;;;5070391;28;20407;-77
2023/12/01 10:04:58;;;;;;;;;;;2.60;99.90;;;;;;5072196;28;19908;-76
2023/12/01 10:07:24;;;;;;;;;;;2.70;99.90;;;;;;5070781;28;19911;-77
2023/12/01 10:09:49;;;;;;;;;;;2.70;99.90;;;;;;5070536;28;19918;-77
2023/12/01 10:12:15;;;;;;;;;;;2.80;99.90;;;;;;5070902;28;19905;-77
2023/12/01 10:14:43;;;;;;;;;;;2.80;99.90;;;;;;5071243;28;19978;-77
2023/12/01 10:17:12;;;;;;;;;;;2.80;99.90;;;;;;5070923;28;20003;-76
2023/12/01 10:19:47;;;;;;;;;;;2.90;99.90;;;;;;5069207;28;19915;-77
2023/12/01 10:22:13;;;;;;;;;;;2.90;99.90;;;;;;5070551;28;19915;-77
2023/12/01 10:24:39;;;;;;;;;;;3.00;99.90;;;;;;5071341;28;19912;-76
2023/12/01 10:27:08;;;;;;;;;;;3.00;99.90;;;;;;5072755;28;19979;-77
2023/12/01 10:29:34;;;;;;;;;;;3.00;99.90;;;;;;5066437;28;19909;-77
2023/12/01 10:32:01;;;;;;;;;;;3.10;99.90;;;;;;5050864;28;19969;-78
2023/12/01 10:34:27;;;;;;;;;;;3.20;99.90;;;;;;5049184;28;19913;-77
2023/12/01 10:36:53;;;;;;;;;;;3.30;99.90;;;;;;5057547;28;19909;-77
2023/12/01 10:39:22;;;;;;;;;;;3.40;99.90;;;;;;5069669;28;19964;-78
2023/12/01 10:41:47;;;;;;;;;;;3.40;99.90;;;;;;5068831;28;19923;-77
2023/12/01 10:44:19;;;;;;;;;;;3.40;99.90;;;;;;5069068;28;19984;-77
2023/12/01 10:46:48;;;;;;;;;;;3.40;99.90;;;;;;5064736;28;19912;-77
2023/12/01 10:49:17;;;;;;;;;;;3.50;99.90;;;;;;5068632;28;19905;-77
2023/12/01 10:51:43;;;;;;;;;;;3.40;99.90;;;;;;5070138;28;19919;-76
2023/12/01 10:54:10;;;;;;;;;;;3.50;99.90;;;;;;5070203;28;20682;-78
2023/12/01 10:56:41;;;;;;;;;;;3.50;99.90;;;;;;5071596;28;19908;-77
2023/12/01 10:59:08;;;;;;;;;;;3.50;99.90;;;;;;5073225;28;20458;-77
2023/12/01 11:01:35;;;;;;;;;;;3.40;99.90;;;;;;5074611;28;19915;-76
2023/12/01 11:04:03;;;;;;;;;;;3.50;99.90;;;;;;5074352;28;19908;-78
2023/12/01 11:06:38;;;;;;;;;;;3.40;99.90;;;;;;5074121;28;19908;-78
2023/12/01 11:09:03;;;;;;;;;;;3.40;99.90;;;;;;5074041;28;19991;-78
2023/12/01 11:11:52;;;;;;;;;;;3.40;99.90;;;;;;5074844;28;19963;-79
2023/12/01 11:14:20;;;;;;;;;;;3.40;99.90;;;;;;5073039;28;19962;-78
2023/12/01 11:16:49;;;;;;;;;;;3.40;99.90;;;;;;5081646;28;20353;-79
2023/12/01 11:19:15;;;;;;;;;;;3.50;99.90;;;;;;5077909;28;19915;-78
2023/12/01 11:21:42;;;;;;;;;;;3.40;99.90;;;;;;5072886;28;20292;-77
2023/12/01 11:24:31;;;;;;;;;;;3.40;99.90;;;;;;5072972;28;20251;-78
2023/12/01 11:27:00;;;;;;;;;;;3.50;99.90;;;;;;5076673;28;19931;-77
2023/12/01 11:29:30;;;;;;;;;;;3.50;99.90;;;;;;5075922;28;19904;-77
2023/12/01 11:31:59;;;;;;;;;;;3.50;99.90;;;;;;5075456;28;19916;-77
2023/12/01 11:34:25;;;;;;;;;;;3.50;99.90;;;;;;5074184;28;19919;-77
2023/12/01 11:36:52;;;;;;;;;;;3.50;99.90;;;;;;5074046;28;20654;-77
2023/12/01 11:39:29;;;;;;;;;;;3.60;99.90;;;;;;5078512;28;19908;-79
2023/12/01 11:41:55;;;;;;;;;;;3.60;99.90;;;;;;5077060;28;19934;-77
2023/12/01 11:44:24;;;;;;;;;;;3.50;99.90;;;;;;5070460;28;19920;-77
2023/12/01 11:46:57;;;;;;;;;;;3.50;99.90;;;;;;5067943;28;19913;-78
2023/12/01 11:49:26;;;;;;;;;;;3.40;99.90;;;;;;5070407;28;20351;-76
2023/12/01 11:51:53;;;;;;;;;;;3.40;99.90;;;;;;5071171;28;19947;-77
2023/12/01 11:54:19;;;;;;;;;;;3.40;99.90;;;;;;5072239;28;19915;-77
2023/12/01 11:56:52;;;;;;;;;;;3.30;99.90;;;;;;5073943;28;19938;-79
2023/12/01 11:59:18;;;;;;;;;;;3.20;99.90;;;;;;5073420;28;19904;-78
2023/12/01 12:01:47;;;;;;;;;;;3.20;99.90;;;;;;5074632;28;19915;-78
2023/12/01 12:04:22;;;;;;;;;;;3.10;99.90;;;;;;5074932;28;20338;-77
2023/12/01 12:06:48;;;;;;;;;;;3.10;99.90;;;;;;5074481;28;19908;-78
2023/12/01 12:09:17;;;;;;;;;;;3.10;99.90;;;;;;5073178;28;19930;-78
2023/12/01 12:11:47;;;;;;;;;;;3.00;99.90;;;;;;5073118;28;20550;-78
2023/12/01 12:14:13;;;;;;;;;;;3.00;99.90;;;;;;5073717;28;19909;-78
2023/12/01 12:16:39;;;;;;;;;;;3.10;99.90;;;;;;5075542;28;19971;-78
2023/12/01 12:19:04;;;;;;;;;;;3.00;99.90;;;;;;5074984;28;20396;-78
2023/12/01 12:21:31;;;;;;;;;;;3.00;99.90;;;;;;5073376;28;19953;-77
2023/12/01 12:23:57;;;;;;;;;;;2.90;99.90;;;;;;5074304;28;19908;-78
2023/12/01 12:26:23;;;;;;;;;;;3.00;99.90;;;;;;5076363;28;19904;-77
2023/12/01 12:28:53;;;;;;;;;;;3.00;99.90;;;;;;5074154;28;20014;-77
2023/12/01 12:31:20;;;;;;;;;;;3.00;99.90;;;;;;5073077;28;19994;-77
2023/12/01 12:33:46;;;;;;;;;;;2.80;99.90;;;;;;5072316;28;20066;-77
2023/12/01 12:36:12;;;;;;;;;;;2.80;99.90;;;;;;5071678;28;19908;-78
2023/12/01 12:38:38;;;;;;;;;;;2.90;99.90;;;;;;5072274;28;19912;-77
2023/12/01 12:41:04;;;;;;;;;;;2.90;99.90;;;;;;5073807;28;19911;-77
2023/12/01 12:43:34;;;;;;;;;;;2.80;99.90;;;;;;5073292;28;19943;-77
2023/12/01 12:46:03;;;;;;;;;;;2.70;99.90;;;;;;5074313;28;19908;-77
2023/12/01 12:48:30;;;;;;;;;;;2.70;99.90;;;;;;5073929;28;19916;-77
2023/12/01 12:50:56;;;;;;;;;;;2.70;99.90;;;;;;5073032;28;19939;-77
2023/12/01 12:53:21;;;;;;;;;;;2.70;99.90;;;;;;5072667;28;20364;-77
2023/12/01 12:55:47;;;;;;;;;;;2.70;99.90;;;;;;5073270;28;20010;-77
2023/12/01 12:58:12;;;;;;;;;;;2.80;99.90;;;;;;5072998;28;19909;-78
2023/12/01 13:00:38;;;;;;;;;;;2.80;99.90;;;;;;5072993;28;19909;-77
2023/12/01 13:03:03;;;;;;;;;;;2.70;99.90;;;;;;5072391;28;19908;-78
2023/12/01 13:05:30;;;;;;;;;;;2.80;99.90;;;;;;5073196;28;19916;-77
2023/12/01 13:07:55;;;;;;;;;;;2.80;99.90;;;;;;5073913;28;19912;-78
2023/12/01 13:10:21;;;;;;;;;;;2.90;99.90;;;;;;5072685;28;19923;-78
2023/12/01 13:12:46;;;;;;;;;;;3.00;99.90;;;;;;5072767;28;19908;-77
2023/12/01 13:15:12;;;;;;;;;;;2.90;99.90;;;;;;5073872;28;20273;-77
2023/12/01 13:17:37;;;;;;;;;;;2.90;99.90;;;;;;5072860;28;20428;-76
2023/12/01 13:20:07;;;;;;;;;;;2.90;99.90;;;;;;5073272;28;19953;-77
2023/12/01 13:22:33;;;;;;;;;;;2.90;99.90;;;;;;5074346;28;20014;-78
2023/12/01 13:24:58;;;;;;;;;;;2.90;99.90;;;;;;5074302;28;19943;-77
2023/12/01 13:27:24;;;;;;;;;;;2.90;99.90;;;;;;5072571;28;20531;-78
2023/12/01 13:29:49;;;;;;;;;;;2.90;99.90;;;;;;5074222;28;19912;-77
2023/12/01 13:34:05;;;;;;;20.97;13.63;;;2.90;99.90;;;;;;5069652;28;20407;-76
2023/12/01 13:36:30;;;;;;;;;;;2.80;99.90;;;;;;5070216;28;20025;-75
2023/12/01 13:38:56;;;;;;;27.88;15.38;;;2.90;99.90;;;;;;5068971;28;19915;-77
2023/12/01 13:41:21;;;;;;;;;;;2.90;99.90;;;;;;5070335;28;20397;-76
2023/12/01 13:43:47;;;;;;;24.15;12.15;;;2.90;99.90;;;;;;5070437;28;20003;-76
2023/12/01 13:46:13;;;;;;;;;;;2.80;99.90;;;;;;5068547;28;20501;-76
2023/12/01 13:48:38;;;;;;;33.53;17.92;;;2.80;99.90;;;;;;5070299;28;19912;-76
2023/12/01 13:51:04;;;;;;;;;;;2.80;99.90;;;;;;5072166;28;20363;-77
2023/12/01 13:53:29;;;;;;;22.17;12.65;;;2.80;99.90;;;;;;5071484;28;19917;-76
2023/12/01 13:55:55;;;;;;;;;;;2.80;99.90;;;;;;5068380;28;20020;-76
2023/12/01 13:58:21;;;;;;;33.05;12.00;;;2.80;99.90;;;;;;5067569;28;20293;-76
2023/12/01 14:00:48;;;;;;;;;;;2.90;99.90;;;;;;5067286;28;20029;-76
2023/12/01 14:03:14;;;;;;;;;;;2.80;99.90;;;;;;5066583;28;19904;-76
2023/12/01 14:05:39;;;;;;;17.58;8.30;;;2.80;99.90;;;;;;5067733;28;19916;-77
2023/12/01 14:08:06;;;;;;;;;;;2.80;99.90;;;;;;5068065;28;20100;-76
2023/12/01 14:10:32;;;;;;;16.23;8.97;;;2.70;99.90;;;;;;5066651;28;20385;-76
2023/12/01 14:12:57;;;;;;;;;;;2.90;99.90;;;;;;5067438;28;20041;-76
2023/12/01 14:15:23;;;;;;;92.55;40.25;;;2.80;99.90;;;;;;5066992;28;19908;-76
2023/12/01 14:17:48;;;;;;;;;;;2.70;99.90;;;;;;5068044;28;20037;-76
2023/12/01 14:20:14;;;;;;;53.38;27.90;;;2.70;99.90;;;;;;5064852;28;19938;-77
2023/12/01 14:22:40;;;;;;;;;;;2.70;99.90;;;;;;5065102;28;20024;-76